createdAt,value
2023-05-11T00:02:05.983Z,64.96
2023-05-11T00:04:33.063Z,65.12
2023-05-11T00:06:59.939Z,65.19
2023-05-11T00:09:26.799Z,65.35
2023-05-11T00:11:53.727Z,65.30
2023-05-11T00:14:20.585Z,65.27
2023-05-11T00:16:47.587Z,65.13
2023-05-11T00:19:14.506Z,64.93
2023-05-11T00:21:41.445Z,65.02
2023-05-11T00:24:08.695Z,65.12
2023-05-11T00:26:35.930Z,65.09
2023-05-11T00:29:02.861Z,65.27
2023-05-11T00:31:30.547Z,65.39
2023-05-11T00:33:57.780Z,65.57
2023-05-11T00:36:24.745Z,65.74
2023-05-11T00:38:52.894Z,65.72
2023-05-11T00:41:19.867Z,65.61
2023-05-11T00:43:46.759Z,65.39
2023-05-11T00:46:13.647Z,65.24
2023-05-11T00:48:40.782Z,65.24
2023-05-11T00:51:07.712Z,65.17
2023-05-11T00:53:34.661Z,65.24
2023-05-11T00:56:01.644Z,65.37
2023-05-11T00:58:28.504Z,65.53
2023-05-11T01:00:55.556Z,65.79
2023-05-11T01:03:22.531Z,65.99
2023-05-11T01:06:23.506Z,66.10
2023-05-11T01:08:53.216Z,65.95
2023-05-11T01:11:41.501Z,65.88
2023-05-11T01:14:27.692Z,65.89
2023-05-11T01:16:57.166Z,66.04
2023-05-11T01:19:45.019Z,66.20
2023-05-11T01:23:07.651Z,65.96
2023-05-11T01:26:02.555Z,66.15
2023-05-11T01:29:00.712Z,66.33
2023-05-11T01:31:29.559Z,66.29
2023-05-11T01:34:02.890Z,66.03
2023-05-11T01:36:34.357Z,65.75
2023-05-11T01:39:04.968Z,65.77
2023-05-11T01:41:32.589Z,65.79
2023-05-11T01:44:01.052Z,65.68
2023-05-11T01:46:30.196Z,65.76
2023-05-11T01:48:57.232Z,65.80
2023-05-11T01:51:24.321Z,66.05
2023-05-11T01:53:51.205Z,66.23
2023-05-11T01:56:18.119Z,66.48
2023-05-11T01:58:44.991Z,66.59
2023-05-11T02:01:11.881Z,66.41
2023-05-11T02:03:38.966Z,66.22
2023-05-11T02:06:06.333Z,66.31
2023-05-11T02:08:33.561Z,66.37
2023-05-11T02:11:00.755Z,66.35
2023-05-11T02:13:28.659Z,66.56
2023-05-11T02:15:56.809Z,66.59
2023-05-11T02:18:24.434Z,66.63
2023-05-11T02:20:56.545Z,66.74
2023-05-11T02:23:25.038Z,66.73
2023-05-11T02:25:55.010Z,66.80
2023-05-11T02:28:22.151Z,66.87
2023-05-11T02:30:50.819Z,66.83
2023-05-11T02:33:24.814Z,66.99
2023-05-11T02:35:52.062Z,67.17
2023-05-11T02:38:19.142Z,67.20
2023-05-11T02:40:46.985Z,67.19
2023-05-11T02:43:16.075Z,67.31
2023-05-11T02:45:48.724Z,67.32
2023-05-11T02:48:21.568Z,67.34
2023-05-11T02:50:48.710Z,67.08
2023-05-11T02:53:16.047Z,67.14
2023-05-11T02:55:43.704Z,67.22
2023-05-11T02:58:10.606Z,67.12
2023-05-11T03:00:39.244Z,67.02
2023-05-11T03:03:06.377Z,66.99
2023-05-11T03:05:33.346Z,66.98
2023-05-11T03:08:00.465Z,66.95
2023-05-11T03:10:27.569Z,67.05
2023-05-11T03:12:54.427Z,67.23
2023-05-11T03:15:21.700Z,67.29
2023-05-11T03:17:50.254Z,67.35
2023-05-11T03:20:21.908Z,67.22
2023-05-11T03:22:49.059Z,67.05
2023-05-11T03:25:16.451Z,67.03
2023-05-11T03:27:43.883Z,67.09
2023-05-11T03:30:12.013Z,67.15
2023-05-11T03:32:42.570Z,67.09
2023-05-11T03:35:10.007Z,67.23
2023-05-11T03:37:38.309Z,67.26
2023-05-11T03:40:06.781Z,67.40
2023-05-11T03:42:39.114Z,67.56
2023-05-11T03:45:06.956Z,67.66
2023-05-11T03:47:33.899Z,67.64
2023-05-11T03:50:01.161Z,67.48
2023-05-11T03:52:28.409Z,67.45
2023-05-11T03:54:55.241Z,67.55
2023-05-11T03:57:22.146Z,67.78
2023-05-11T03:59:49.146Z,67.90
2023-05-11T04:02:16.075Z,68.02
2023-05-11T04:04:43.252Z,68.16
2023-05-11T04:07:10.257Z,68.09
2023-05-11T04:09:37.108Z,67.79
2023-05-11T04:14:09.549Z,67.99
2023-05-11T04:16:36.673Z,68.17
2023-05-11T04:19:03.880Z,68.48
2023-05-11T04:21:31.263Z,68.48
2023-05-11T04:23:58.373Z,68.42
2023-05-11T04:26:25.258Z,68.08
2023-05-11T04:28:52.190Z,67.73
2023-05-11T04:31:20.139Z,67.45
2023-05-11T04:33:47.098Z,67.59
2023-05-11T04:36:14.370Z,67.60
2023-05-11T04:38:41.222Z,67.86
2023-05-11T04:41:09.147Z,67.85
2023-05-11T04:43:37.154Z,68.09
2023-05-11T04:46:04.974Z,67.63
2023-05-11T04:48:32.060Z,67.17
2023-05-11T04:50:59.046Z,66.89
2023-05-11T04:53:30.245Z,66.81
2023-05-11T04:55:57.518Z,66.48
2023-05-11T04:58:24.768Z,66.05
2023-05-11T05:00:51.782Z,65.92
2023-05-11T05:03:19.525Z,65.71
2023-05-11T05:05:46.428Z,65.30
2023-05-11T05:08:13.625Z,65.15
2023-05-11T05:10:40.650Z,64.91
2023-05-11T05:13:07.666Z,64.63
2023-05-11T05:15:35.458Z,64.34
2023-05-11T05:18:02.750Z,64.19
2023-05-11T05:20:29.778Z,64.35
2023-05-11T05:22:59.045Z,63.97
2023-05-11T05:25:26.221Z,63.53
2023-05-11T05:27:53.183Z,62.66
2023-05-11T05:30:20.775Z,62.23
2023-05-11T05:32:48.468Z,61.76
2023-05-11T05:35:15.496Z,61.20
2023-05-11T05:37:43.268Z,60.92
2023-05-11T05:40:11.272Z,60.75
2023-05-11T05:42:44.042Z,60.24
2023-05-11T05:45:14.861Z,59.61
2023-05-11T05:47:42.183Z,59.36
2023-05-11T05:50:11.936Z,59.18
2023-05-11T05:52:40.925Z,58.98
2023-05-11T05:55:08.730Z,59.26
2023-05-11T05:57:35.941Z,58.94
2023-05-11T06:00:04.073Z,58.72
2023-05-11T06:02:39.919Z,58.47
2023-05-11T06:05:08.208Z,57.99
2023-05-11T06:07:35.249Z,58.30
2023-05-11T06:10:02.649Z,57.98
2023-05-11T06:12:30.232Z,57.35
2023-05-11T06:14:57.432Z,57.07
2023-05-11T06:17:24.651Z,56.50
2023-05-11T06:19:51.612Z,56.54
2023-05-11T06:22:21.217Z,56.77
2023-05-11T06:24:48.232Z,56.42
2023-05-11T06:27:17.925Z,56.36
2023-05-11T06:29:45.280Z,56.30
2023-05-11T06:32:17.321Z,55.68
2023-05-11T06:34:44.290Z,54.66
2023-05-11T06:37:11.310Z,54.11
2023-05-11T06:39:38.125Z,54.21
2023-05-11T06:42:07.912Z,54.14
2023-05-11T06:44:34.855Z,54.14
2023-05-11T06:47:01.725Z,54.16
2023-05-11T06:49:28.982Z,54.01
2023-05-11T06:51:55.843Z,54.45
2023-05-11T06:54:22.914Z,54.23
2023-05-11T06:56:49.910Z,53.43
2023-05-11T06:59:16.791Z,53.35
2023-05-11T07:01:44.038Z,52.83
2023-05-11T07:04:11.063Z,53.20
2023-05-11T07:06:37.988Z,52.61
2023-05-11T07:09:05.046Z,52.49
2023-05-11T07:11:32.386Z,52.56
2023-05-11T07:13:59.333Z,52.12
2023-05-11T07:16:26.432Z,51.55
2023-05-11T07:18:53.502Z,51.33
2023-05-11T07:21:22.284Z,51.35
2023-05-11T07:23:49.262Z,50.70
2023-05-11T07:26:16.522Z,50.79
2023-05-11T07:28:43.360Z,50.56
2023-05-11T07:31:10.284Z,50.69
2023-05-11T07:33:38.436Z,50.19
2023-05-11T07:36:06.904Z,49.52
2023-05-11T07:38:33.863Z,49.16
2023-05-11T07:41:00.759Z,48.38
2023-05-11T07:43:27.709Z,48.35
2023-05-11T07:45:54.673Z,48.52
2023-05-11T07:48:21.739Z,48.46
2023-05-11T07:50:49.732Z,47.71
2023-05-11T07:53:16.775Z,47.61
2023-05-11T07:55:43.625Z,47.39
2023-05-11T07:58:10.726Z,46.77
2023-05-11T08:00:38.126Z,46.66
2023-05-11T08:03:05.026Z,46.54
2023-05-11T08:05:38.007Z,46.46
2023-05-11T08:08:05.280Z,46.38
2023-05-11T08:10:32.448Z,46.37
2023-05-11T08:12:59.652Z,45.89
2023-05-11T08:15:27.069Z,45.12
2023-05-11T08:17:54.213Z,44.73
2023-05-11T08:20:21.125Z,44.84
2023-05-11T08:22:48.142Z,45.32
2023-05-11T08:25:18.119Z,45.19
2023-05-11T08:27:45.260Z,45.31
2023-05-11T08:30:12.463Z,44.51
2023-05-11T08:32:57.118Z,44.66
2023-05-11T08:35:25.804Z,43.98
2023-05-11T08:37:55.034Z,44.00
2023-05-11T08:40:21.882Z,44.72
2023-05-11T08:42:51.133Z,43.54
2023-05-11T08:45:18.175Z,43.21
2023-05-11T08:47:46.662Z,42.40
2023-05-11T08:50:14.054Z,42.63
2023-05-11T08:52:41.306Z,41.89
2023-05-11T08:55:13.016Z,42.17
2023-05-11T08:57:40.514Z,41.33
2023-05-11T09:00:08.997Z,40.85
2023-05-11T09:02:36.055Z,40.85
2023-05-11T09:05:05.549Z,39.38
2023-05-11T09:07:33.340Z,37.83
2023-05-11T09:10:00.317Z,36.67
2023-05-11T09:17:04.692Z,36.35
2023-05-11T09:19:31.833Z,35.89
2023-05-11T09:22:02.566Z,35.43
2023-05-11T09:24:31.088Z,35.50
2023-05-11T09:27:09.176Z,35.60
2023-05-11T09:29:42.793Z,35.88
2023-05-11T09:32:10.253Z,35.93
2023-05-11T09:34:43.061Z,34.92
2023-05-11T09:37:16.852Z,34.67
2023-05-11T09:40:04.798Z,34.29
2023-05-11T09:42:30.687Z,34.63
2023-05-11T09:44:58.512Z,34.95
2023-05-11T09:47:27.692Z,34.65
2023-05-11T09:49:57.216Z,34.39
2023-05-11T09:52:26.560Z,35.00
2023-05-11T09:54:53.918Z,34.61
2023-05-11T09:57:28.478Z,34.02
2023-05-11T09:59:59.711Z,33.76
2023-05-11T10:02:30.926Z,33.50
2023-05-11T10:04:59.124Z,33.05
2023-05-11T10:07:29.886Z,33.35
2023-05-11T10:10:05.739Z,33.37
2023-05-11T10:12:33.879Z,34.15
2023-05-11T10:15:02.175Z,33.51
2023-05-11T10:17:30.926Z,33.01
2023-05-11T10:19:58.354Z,32.87
2023-05-11T10:22:25.941Z,33.21
2023-05-11T10:24:53.377Z,33.27
2023-05-11T10:27:20.889Z,33.57
2023-05-11T10:32:54.927Z,31.06
2023-05-11T10:35:22.530Z,32.21
2023-05-11T10:37:50.712Z,33.30
2023-05-11T10:40:18.392Z,33.54
2023-05-11T10:42:45.522Z,33.77
2023-05-11T10:45:21.971Z,32.86
2023-05-11T10:48:07.631Z,32.51
2023-05-11T10:51:12.664Z,32.96
2023-05-11T10:54:12.560Z,33.23
2023-05-11T10:57:05.771Z,33.56
2023-05-11T11:00:12.079Z,33.40
2023-05-11T11:02:39.726Z,33.41
2023-05-11T11:05:10.849Z,33.52
2023-05-11T11:07:56.919Z,32.95
2023-05-11T11:10:37.169Z,33.16
2023-05-11T11:13:09.578Z,32.92
2023-05-11T11:15:57.236Z,32.72
2023-05-11T11:18:33.658Z,32.82
2023-05-11T11:21:01.822Z,32.36
2023-05-11T11:23:50.235Z,32.68
2023-05-11T11:26:38.561Z,32.64
2023-05-11T11:29:11.091Z,32.12
2023-05-11T11:31:40.591Z,31.73
2023-05-11T11:34:37.052Z,31.52
2023-05-11T11:37:04.453Z,32.19
2023-05-11T11:39:43.792Z,32.93
2023-05-11T11:42:12.554Z,33.38
2023-05-11T11:44:39.953Z,32.32
2023-05-11T11:47:16.575Z,32.09
2023-05-11T11:49:44.797Z,32.53
2023-05-11T11:52:26.508Z,32.65
2023-05-11T11:54:54.212Z,32.96
2023-05-11T11:57:32.625Z,32.36
2023-05-11T12:00:00.238Z,32.56
2023-05-11T12:02:27.709Z,32.95
2023-05-11T12:05:00.175Z,33.43
2023-05-11T12:07:27.417Z,33.71
2023-05-11T12:09:54.282Z,33.11
2023-05-11T12:12:21.394Z,32.94
2023-05-11T12:14:51.170Z,32.82
2023-05-11T12:17:29.789Z,33.15
2023-05-11T12:20:14.561Z,33.71
2023-05-11T12:22:41.762Z,33.75
2023-05-11T12:25:11.417Z,33.55
2023-05-11T12:27:49.936Z,33.92
2023-05-11T12:30:21.451Z,33.83
2023-05-11T12:32:48.524Z,34.44
2023-05-11T12:35:16.641Z,34.08
2023-05-11T12:37:44.252Z,33.87
2023-05-11T12:40:11.908Z,34.07
2023-05-11T12:42:38.801Z,34.37
2023-05-11T12:45:06.225Z,34.50
2023-05-11T12:47:35.502Z,35.01
2023-05-11T12:50:02.635Z,34.44
2023-05-11T12:52:29.480Z,34.44
2023-05-11T12:55:00.260Z,34.32
2023-05-11T12:57:34.105Z,34.40
2023-05-11T13:00:11.425Z,33.98
2023-05-11T13:02:51.171Z,33.55
2023-05-11T13:05:19.688Z,33.87
2023-05-11T13:07:48.642Z,34.03
2023-05-11T13:10:15.575Z,33.70
2023-05-11T13:12:49.829Z,33.76
2023-05-11T13:15:16.922Z,33.49
2023-05-11T13:17:44.251Z,33.68
2023-05-11T13:20:34.837Z,33.30
2023-05-11T13:23:06.094Z,32.83
2023-05-11T13:25:33.609Z,33.13
2023-05-11T13:28:01.623Z,32.51
2023-05-11T13:30:33.413Z,32.46
2023-05-11T13:33:02.012Z,32.75
2023-05-11T13:35:28.923Z,32.98
2023-05-11T13:37:56.405Z,33.72
2023-05-11T13:40:23.419Z,33.58
2023-05-11T13:42:50.223Z,33.17
2023-05-11T13:45:17.891Z,32.34
2023-05-11T13:47:45.621Z,32.49
2023-05-11T13:50:12.969Z,32.96
2023-05-11T13:52:40.820Z,33.16
2023-05-11T13:55:08.365Z,33.15
2023-05-11T13:57:35.450Z,33.27
2023-05-11T14:00:02.697Z,33.46
2023-05-11T14:02:38.720Z,33.31
2023-05-11T14:05:06.041Z,33.32
2023-05-11T14:07:45.752Z,33.55
2023-05-11T14:10:14.551Z,33.86
2023-05-11T14:12:41.529Z,34.20
2023-05-11T14:15:09.276Z,33.80
2023-05-11T14:17:36.332Z,33.85
2023-05-11T14:20:04.046Z,34.08
2023-05-11T14:22:31.001Z,34.17
2023-05-11T14:24:58.003Z,33.92
2023-05-11T14:27:24.821Z,33.64
2023-05-11T14:29:52.417Z,33.82
2023-05-11T14:32:19.749Z,34.04
2023-05-11T14:34:46.993Z,34.46
2023-05-11T14:37:13.904Z,34.47
2023-05-11T14:39:41.208Z,34.51
2023-05-11T14:42:08.480Z,33.78
2023-05-11T14:44:35.412Z,33.65
2023-05-11T14:47:02.383Z,33.61
2023-05-11T14:49:29.267Z,33.14
2023-05-11T14:51:57.878Z,33.25
2023-05-11T14:54:24.966Z,33.70
2023-05-11T14:56:54.117Z,34.25
2023-05-11T14:59:21.664Z,33.93
2023-05-11T15:01:49.557Z,33.50
2023-05-11T15:04:17.001Z,33.20
2023-05-11T15:06:44.106Z,33.79
2023-05-11T15:09:11.097Z,33.69
2023-05-11T15:11:38.151Z,33.47
2023-05-11T15:14:08.175Z,33.82
2023-05-11T15:16:35.360Z,33.84
2023-05-11T15:19:02.302Z,33.71
2023-05-11T15:21:29.258Z,33.52
2023-05-11T15:23:56.272Z,33.76
2023-05-11T15:26:23.171Z,33.83
2023-05-11T15:28:50.102Z,34.00
2023-05-11T15:31:19.395Z,33.94
2023-05-11T15:33:48.691Z,33.90
2023-05-11T15:36:15.791Z,34.14
2023-05-11T15:38:42.970Z,34.08
2023-05-11T15:41:12.838Z,34.51
2023-05-11T15:43:39.717Z,34.45
2023-05-11T15:46:10.244Z,33.95
2023-05-11T15:48:37.371Z,33.84
2023-05-11T15:51:06.595Z,34.10
2023-05-11T15:53:33.523Z,34.06
2023-05-11T15:56:00.498Z,33.98
2023-05-11T15:58:29.181Z,34.09
2023-05-11T16:00:58.563Z,34.53
2023-05-11T16:03:26.044Z,34.66
2023-05-11T16:05:53.482Z,34.47
2023-05-11T16:08:20.678Z,34.75
2023-05-11T16:10:47.669Z,34.74
2023-05-11T16:13:14.640Z,34.93
2023-05-11T16:15:41.511Z,34.47
2023-05-11T16:18:08.565Z,34.69
2023-05-11T16:20:35.486Z,34.89
2023-05-11T16:23:02.395Z,34.92
2023-05-11T16:25:29.369Z,35.05
2023-05-11T16:27:58.551Z,35.29
2023-05-11T16:30:26.113Z,35.16
2023-05-11T16:32:53.698Z,35.00
2023-05-11T16:35:20.994Z,35.29
2023-05-11T16:37:48.384Z,35.31
2023-05-11T16:40:19.191Z,35.33
2023-05-11T16:42:47.536Z,35.63
2023-05-11T16:45:15.182Z,35.95
2023-05-11T16:47:43.222Z,36.15
2023-05-11T16:50:10.870Z,36.22
2023-05-11T16:52:37.788Z,36.38
2023-05-11T16:55:05.109Z,36.45
2023-05-11T16:57:32.009Z,36.63
2023-05-11T16:59:58.914Z,36.90
2023-05-11T17:02:25.945Z,36.93
2023-05-11T17:04:52.994Z,36.99
2023-05-11T17:07:19.873Z,37.03
2023-05-11T17:09:46.813Z,37.21
2023-05-11T17:12:13.869Z,37.50
2023-05-11T17:14:40.797Z,37.50
2023-05-11T17:17:08.207Z,37.72
2023-05-11T17:19:35.122Z,38.07
2023-05-11T17:22:02.369Z,38.14
2023-05-11T17:24:29.352Z,38.33
2023-05-11T17:26:56.327Z,38.44
2023-05-11T17:29:23.274Z,38.64
2023-05-11T17:31:51.869Z,38.85
2023-05-11T17:34:19.750Z,39.25
2023-05-11T17:36:47.779Z,39.25
2023-05-11T17:39:16.128Z,39.43
2023-05-11T17:41:43.385Z,39.65
2023-05-11T17:44:10.486Z,39.86
2023-05-11T17:46:39.860Z,40.12
2023-05-11T17:49:07.356Z,40.47
2023-05-11T17:51:36.840Z,40.76
2023-05-11T17:54:03.913Z,40.81
2023-05-11T17:56:31.589Z,41.09
2023-05-11T17:58:58.548Z,41.23
2023-05-11T18:01:27.529Z,41.51
2023-05-11T18:03:54.755Z,41.72
2023-05-11T18:06:21.766Z,41.91
2023-05-11T18:08:48.827Z,42.00
2023-05-11T18:11:15.713Z,42.14
2023-05-11T18:13:42.724Z,42.31
2023-05-11T18:16:09.894Z,42.43
2023-05-11T18:18:36.977Z,42.54
2023-05-11T18:21:05.651Z,42.75
2023-05-11T18:23:32.903Z,42.91
2023-05-11T18:25:59.973Z,43.09
2023-05-11T18:28:27.097Z,43.21
2023-05-11T18:30:54.342Z,43.33
2023-05-11T18:33:21.349Z,43.50
2023-05-11T18:35:48.358Z,43.66
2023-05-11T18:38:15.215Z,43.87
2023-05-11T18:40:42.108Z,44.14
2023-05-11T18:43:09.670Z,44.17
2023-05-11T18:45:36.530Z,44.41
2023-05-11T18:48:03.872Z,44.68
2023-05-11T18:50:30.853Z,45.00
2023-05-11T18:52:57.926Z,45.19
2023-05-11T18:55:25.049Z,45.33
2023-05-11T18:57:52.861Z,45.46
2023-05-11T19:00:20.737Z,45.65
2023-05-11T19:02:48.374Z,45.92
2023-05-11T19:05:15.745Z,45.99
2023-05-11T19:07:42.695Z,46.17
2023-05-11T19:10:10.079Z,46.38
2023-05-11T19:12:37.344Z,46.50
2023-05-11T19:15:04.685Z,46.69
2023-05-11T19:17:31.616Z,46.73
2023-05-11T19:19:58.737Z,46.87
2023-05-11T19:22:26.158Z,47.06
2023-05-11T19:24:53.086Z,47.11
2023-05-11T19:27:20.001Z,47.41
2023-05-11T19:29:49.566Z,47.45
2023-05-11T19:32:19.930Z,47.63
2023-05-11T19:34:47.250Z,47.76
2023-05-11T19:37:14.124Z,47.82
2023-05-11T19:39:41.380Z,47.94
2023-05-11T19:42:08.508Z,47.92
2023-05-11T19:44:37.963Z,48.23
2023-05-11T19:47:04.851Z,48.21
2023-05-11T19:49:31.715Z,48.26
2023-05-11T19:51:59.134Z,48.16
2023-05-11T19:54:26.036Z,48.29
2023-05-11T19:56:53.032Z,48.42
2023-05-11T19:59:20.302Z,48.46
2023-05-11T20:01:47.303Z,48.49
2023-05-11T20:04:15.032Z,48.75
2023-05-11T20:06:41.945Z,48.82
2023-05-11T20:09:08.912Z,48.90
2023-05-11T20:11:35.930Z,48.83
2023-05-11T20:14:04.779Z,49.04
2023-05-11T20:16:32.183Z,49.23
2023-05-11T20:18:59.647Z,49.34
2023-05-11T20:21:26.780Z,49.36
2023-05-11T20:23:53.759Z,49.51
2023-05-11T20:26:20.655Z,49.51
2023-05-11T20:28:47.773Z,49.92
2023-05-11T20:31:14.663Z,50.13
2023-05-11T20:36:14.298Z,50.65
2023-05-11T20:38:41.187Z,50.75
2023-05-11T20:41:08.287Z,50.83
2023-05-11T20:43:35.129Z,51.31
2023-05-11T20:46:03.547Z,51.43
2023-05-11T20:48:39.677Z,51.40
2023-05-11T20:51:07.849Z,51.52
2023-05-11T20:53:37.975Z,51.59
2023-05-11T20:56:05.009Z,51.83
2023-05-11T20:58:31.967Z,51.82
2023-05-11T21:00:59.114Z,51.83
2023-05-11T21:03:26.779Z,52.05
2023-05-11T21:05:53.860Z,52.25
2023-05-11T21:08:20.828Z,52.18
2023-05-11T21:10:47.753Z,52.17
2023-05-11T21:13:16.984Z,52.25
2023-05-11T21:15:43.816Z,52.16
2023-05-11T21:18:10.843Z,52.17
2023-05-11T21:20:37.817Z,52.51
2023-05-11T21:23:04.807Z,52.37
2023-05-11T21:25:31.644Z,52.51
2023-05-11T21:28:00.894Z,52.57
2023-05-11T21:30:30.309Z,52.47
2023-05-11T21:32:57.486Z,52.56
2023-05-11T21:35:24.386Z,52.75
2023-05-11T21:37:51.464Z,52.62
2023-05-11T21:40:18.676Z,52.56
2023-05-11T21:42:46.344Z,52.78
2023-05-11T21:45:13.282Z,52.97
2023-05-11T21:47:40.235Z,53.23
2023-05-11T21:50:08.725Z,53.33
2023-05-11T21:52:37.190Z,53.40
2023-05-11T21:55:04.887Z,53.61
2023-05-11T21:57:31.824Z,53.81
2023-05-11T21:59:58.694Z,53.83
2023-05-11T22:02:25.915Z,53.87
2023-05-11T22:04:53.108Z,53.92
2023-05-11T22:07:20.222Z,54.13
2023-05-11T22:09:47.125Z,54.19
2023-05-11T22:12:14.036Z,54.41
2023-05-11T22:14:41.538Z,54.39
2023-05-11T22:17:08.653Z,54.52
2023-05-11T22:19:35.708Z,54.61
2023-05-11T22:22:02.621Z,54.81
2023-05-11T22:24:29.679Z,55.03
2023-05-11T22:26:56.603Z,54.96
2023-05-11T22:29:23.419Z,55.16
2023-05-11T22:31:50.364Z,55.32
2023-05-11T22:34:19.348Z,55.55
2023-05-11T22:36:48.833Z,55.64
2023-05-11T22:42:37.989Z,56.16
2023-05-11T22:45:05.432Z,56.27
2023-05-11T22:50:31.767Z,56.53
2023-05-11T22:52:58.714Z,56.56
2023-05-11T22:55:25.774Z,56.94
2023-05-11T22:57:52.720Z,57.01
2023-05-11T23:00:20.573Z,57.04
2023-05-11T23:02:47.904Z,57.26
2023-05-11T23:05:14.948Z,57.43
2023-05-11T23:07:42.113Z,57.64
2023-05-11T23:10:09.453Z,57.91
2023-05-11T23:12:36.366Z,57.99
2023-05-11T23:15:03.990Z,58.17
2023-05-11T23:17:31.057Z,58.03
2023-05-11T23:19:58.189Z,58.13
2023-05-11T23:22:25.229Z,58.19
2023-05-11T23:24:52.173Z,58.20
2023-05-11T23:27:19.085Z,58.37
2023-05-11T23:29:46.058Z,58.57
2023-05-11T23:32:13.167Z,58.54
2023-05-11T23:34:40.353Z,58.83
2023-05-11T23:37:07.497Z,58.85
2023-05-11T23:39:34.458Z,58.79
2023-05-11T23:42:01.726Z,58.97
2023-05-11T23:44:28.585Z,59.07
2023-05-11T23:46:55.633Z,59.10
2023-05-11T23:49:22.569Z,59.30
2023-05-11T23:51:49.532Z,59.35
2023-05-11T23:54:16.525Z,59.22
2023-05-11T23:56:44.393Z,59.15
2023-05-11T23:59:11.288Z,58.99
